createdAt,value
2023-01-01T00:00:53.350Z,10.00
2023-01-01T00:03:58.410Z,11.40
2023-01-01T00:07:01.795Z,10.00
2023-01-01T00:10:24.933Z,8.00
2023-01-01T00:13:28.164Z,8.00
2023-01-01T00:16:31.590Z,10.40
2023-01-01T00:19:34.845Z,10.60
2023-01-01T00:22:55.553Z,9.60
2023-01-01T00:26:00.857Z,8.40
2023-01-01T00:29:05.175Z,9.40
2023-01-01T00:32:11.565Z,7.00
2023-01-01T00:35:15.126Z,5.00
2023-01-01T00:38:18.365Z,7.00
2023-01-01T00:41:23.712Z,6.00
2023-01-01T00:44:26.984Z,8.00
2023-01-01T00:47:30.805Z,6.00
2023-01-01T00:50:34.031Z,7.00
2023-01-01T00:53:37.829Z,7.00
2023-01-01T00:56:42.545Z,6.20
2023-01-01T00:59:46.139Z,7.00
2023-01-01T01:02:49.437Z,6.20
2023-01-01T01:05:52.817Z,6.00
2023-01-01T01:08:56.149Z,5.00
2023-01-01T01:12:18.031Z,6.00
2023-01-01T01:15:22.833Z,6.00
2023-01-01T01:18:26.459Z,6.00
2023-01-01T01:21:31.502Z,5.00
2023-01-01T01:24:34.955Z,6.00
2023-01-01T01:27:39.565Z,6.00
2023-01-01T01:30:43.692Z,3.00
2023-01-01T01:33:48.097Z,4.00
2023-01-01T01:36:53.203Z,4.20
2023-01-01T01:39:56.385Z,6.00
2023-01-01T01:43:01.099Z,5.20
2023-01-01T01:46:07.726Z,3.00
2023-01-01T01:49:17.643Z,3.20
2023-01-01T01:52:21.013Z,6.00
2023-01-01T01:55:24.749Z,5.00
2023-01-01T01:58:32.315Z,4.00
2023-01-01T02:01:36.272Z,4.00
2023-01-01T02:04:40.097Z,5.00
2023-01-01T02:07:43.835Z,4.00
2023-01-01T02:10:48.185Z,4.00
2023-01-01T02:13:54.682Z,5.00
2023-01-01T02:17:01.559Z,4.00
2023-01-01T02:20:20.862Z,2.80
2023-01-01T02:23:44.753Z,3.40
2023-01-01T02:26:54.433Z,4.20
2023-01-01T02:30:03.320Z,3.50
2023-01-01T02:33:12.315Z,2.40
2023-01-01T02:36:16.212Z,2.00
2023-01-01T02:39:22.621Z,4.00
2023-01-01T02:42:30.386Z,3.00
2023-01-01T02:45:35.504Z,3.00
2023-01-01T02:48:42.076Z,4.00
2023-01-01T02:52:04.034Z,3.20
2023-01-01T02:55:15.293Z,3.60
2023-01-01T02:58:43.370Z,4.00
2023-01-01T03:01:50.958Z,4.00
2023-01-01T03:05:07.451Z,1.40
2023-01-01T03:08:17.317Z,5.00
2023-01-01T03:11:23.734Z,4.00
2023-01-01T03:14:35.327Z,3.75
2023-01-01T03:17:47.250Z,5.00
2023-01-01T03:20:54.888Z,3.00
2023-01-01T03:23:58.703Z,3.25
2023-01-01T03:27:09.085Z,3.20
2023-01-01T03:30:16.773Z,3.75
2023-01-01T03:33:28.475Z,3.00
2023-01-01T03:36:36.634Z,5.00
2023-01-01T03:39:46.799Z,3.00
2023-01-01T03:42:53.601Z,3.60
2023-01-01T03:46:00.476Z,3.00
2023-01-01T03:49:07.906Z,4.00
2023-01-01T03:52:24.610Z,2.20
2023-01-01T03:55:36.366Z,3.40
2023-01-01T03:58:44.814Z,4.00
2023-01-01T04:01:53.405Z,3.40
2023-01-01T04:05:01.204Z,5.00
2023-01-01T04:08:06.561Z,5.00
2023-01-01T04:11:34.385Z,4.00
2023-01-01T04:14:40.731Z,4.00
2023-01-01T04:17:44.039Z,5.00
2023-01-01T04:20:48.672Z,5.00
2023-01-01T04:23:51.866Z,3.00
2023-01-01T04:26:55.984Z,5.00
2023-01-01T04:29:59.512Z,7.00
2023-01-01T04:33:03.141Z,5.67
2023-01-01T04:36:10.364Z,5.00
2023-01-01T04:39:13.866Z,5.00
2023-01-01T04:42:17.058Z,8.00
2023-01-01T04:45:20.368Z,8.00
2023-01-01T04:48:23.705Z,8.20
2023-01-01T04:51:28.372Z,6.00
2023-01-01T04:54:31.676Z,9.00
2023-01-01T04:57:34.905Z,8.25
2023-01-01T05:00:38.190Z,7.25
2023-01-01T05:03:41.761Z,9.40
2023-01-01T05:06:46.391Z,10.00
2023-01-01T05:09:49.679Z,6.00
2023-01-01T05:12:52.950Z,10.00
2023-01-01T05:15:56.503Z,8.80
2023-01-01T05:19:00.398Z,7.25
2023-01-01T05:22:10.341Z,9.00
2023-01-01T05:25:13.781Z,8.00
2023-01-01T05:28:17.083Z,8.00
2023-01-01T05:31:22.614Z,7.00
2023-01-01T05:34:26.600Z,9.00
2023-01-01T05:37:31.206Z,6.60
2023-01-01T05:40:35.042Z,7.00
2023-01-01T05:43:38.335Z,7.00
2023-01-01T05:46:41.698Z,8.00
2023-01-01T05:49:44.952Z,6.75
2023-01-01T05:52:49.725Z,7.00
2023-01-01T05:55:55.926Z,7.40
2023-01-01T05:58:59.490Z,6.20
2023-01-01T06:02:02.885Z,5.20
2023-01-01T06:05:07.096Z,8.00
2023-01-01T06:08:13.090Z,7.00
2023-01-01T06:11:16.344Z,6.25
2023-01-01T06:14:19.601Z,7.80
2023-01-01T06:17:22.888Z,7.00
2023-01-01T06:20:26.135Z,7.00
2023-01-01T06:23:30.775Z,9.00
2023-01-01T06:26:34.676Z,8.00
2023-01-01T06:29:38.492Z,10.00
2023-01-01T06:32:41.720Z,9.40
2023-01-01T06:35:45.239Z,10.60
2023-01-01T06:38:52.984Z,10.00
2023-01-01T06:41:56.239Z,10.00
2023-01-01T06:44:59.493Z,10.20
2023-01-01T06:48:02.776Z,10.80
2023-01-01T06:51:08.580Z,12.00
2023-01-01T06:54:13.361Z,15.00
2023-01-01T06:57:17.101Z,13.20
2023-01-01T07:00:20.614Z,14.00
2023-01-01T07:03:23.963Z,14.00
2023-01-01T07:06:28.868Z,12.75
2023-01-01T07:09:33.656Z,13.00
2023-01-01T07:12:36.883Z,12.00
2023-01-01T07:15:40.143Z,16.00
2023-01-01T07:18:43.972Z,14.60
2023-01-01T07:21:52.545Z,13.00
2023-01-01T07:24:57.266Z,15.20
2023-01-01T07:28:00.556Z,14.00
2023-01-01T07:31:04.283Z,13.00
2023-01-01T07:34:08.330Z,11.00
2023-01-01T07:37:11.678Z,12.80
2023-01-01T07:40:16.554Z,10.00
2023-01-01T07:43:19.800Z,11.20
2023-01-01T07:46:23.134Z,13.25
2023-01-01T07:49:26.525Z,14.00
2023-01-01T07:52:29.750Z,13.00
2023-01-01T07:55:35.256Z,11.50
2023-01-01T07:58:40.556Z,14.00
2023-01-01T08:01:44.804Z,11.60
2023-01-01T08:04:48.199Z,14.00
2023-01-01T08:07:52.520Z,14.80
2023-01-01T08:11:03.916Z,14.00
2023-01-01T08:14:07.508Z,12.75
2023-01-01T08:17:10.795Z,13.20
2023-01-01T08:20:14.361Z,13.00
2023-01-01T08:23:17.896Z,15.00
2023-01-01T08:26:30.407Z,14.00
2023-01-01T08:29:33.669Z,14.00
2023-01-01T08:32:37.504Z,12.80
2023-01-01T08:35:45.627Z,14.50
2023-01-01T08:38:52.210Z,13.40
2023-01-01T08:41:56.901Z,16.00
2023-01-01T08:45:00.176Z,13.00
2023-01-01T08:48:03.393Z,14.60
2023-01-01T08:51:07.220Z,14.00
2023-01-01T08:54:10.656Z,14.00
2023-01-01T08:57:15.980Z,14.80
2023-01-01T09:00:19.393Z,15.00
2023-01-01T09:03:23.083Z,13.60
2023-01-01T09:06:26.596Z,14.00
2023-01-01T09:09:31.873Z,15.50
2023-01-01T09:12:36.693Z,13.60
2023-01-01T09:15:40.590Z,14.80
2023-01-01T09:18:43.787Z,16.00
2023-01-01T09:21:47.391Z,16.40
2023-01-01T09:24:50.677Z,15.00
2023-01-01T09:27:59.793Z,15.00
2023-01-01T09:31:05.265Z,12.00
2023-01-01T09:34:08.761Z,15.00
2023-01-01T09:37:11.967Z,14.00
2023-01-01T09:40:29.108Z,13.60
2023-01-01T09:43:46.935Z,13.20
2023-01-01T09:46:50.978Z,14.40
2023-01-01T09:49:58.374Z,15.00
2023-01-01T09:53:05.397Z,14.80
2023-01-01T09:56:16.199Z,14.00
2023-01-01T09:59:20.864Z,14.00
2023-01-01T10:02:45.609Z,11.20
2023-01-01T10:06:02.274Z,11.00
2023-01-01T10:09:13.411Z,13.50
2023-01-01T10:12:27.031Z,11.80
2023-01-01T10:15:36.319Z,9.60
2023-01-01T10:18:42.512Z,12.00
2023-01-01T10:21:49.561Z,11.00
2023-01-01T10:24:58.706Z,11.50
2023-01-01T10:28:05.974Z,10.00
2023-01-01T10:31:17.956Z,12.25
2023-01-01T10:34:26.048Z,12.00
2023-01-01T10:37:36.971Z,10.00
2023-01-01T10:40:41.274Z,9.00
2023-01-01T10:43:46.525Z,11.00
2023-01-01T10:46:58.253Z,12.00
2023-01-01T10:50:05.383Z,9.75
2023-01-01T10:53:22.025Z,10.00
2023-01-01T10:56:28.978Z,11.20
2023-01-01T10:59:38.538Z,10.50
2023-01-01T11:02:43.405Z,11.00
2023-01-01T11:06:21.336Z,11.00
2023-01-01T11:09:27.735Z,11.40
2023-01-01T11:13:04.371Z,11.60
2023-01-01T11:16:00.172Z,10.00
2023-01-01T11:19:09.049Z,9.60
2023-01-01T11:22:39.723Z,11.00
2023-01-01T11:25:58.486Z,10.25
2023-01-01T11:29:04.782Z,10.00
2023-01-01T11:32:09.561Z,10.60
2023-01-01T11:35:19.165Z,12.00
2023-01-01T11:38:29.954Z,10.00
2023-01-01T11:41:43.583Z,11.00
2023-01-01T11:44:49.382Z,10.00
2023-01-01T11:47:56.716Z,9.60
2023-01-01T11:51:03.241Z,12.00
2023-01-01T11:54:22.282Z,11.60
2023-01-01T11:57:27.847Z,12.00
2023-01-01T12:00:35.770Z,14.00
2023-01-01T12:03:45.602Z,12.75
2023-01-01T12:06:53.909Z,11.20
2023-01-01T12:10:03.935Z,11.00
2023-01-01T12:13:12.274Z,13.00
2023-01-01T12:16:21.840Z,14.00
2023-01-01T12:19:30.106Z,12.00
2023-01-01T12:22:33.786Z,12.00
2023-01-01T12:25:43.010Z,13.00
2023-01-01T12:29:12.040Z,12.00
2023-01-01T12:32:22.823Z,15.00
2023-01-01T12:35:38.434Z,11.60
2023-01-01T12:39:14.910Z,14.00
2023-01-01T12:42:28.348Z,13.00
2023-01-01T12:46:07.282Z,13.40
2023-01-01T12:49:42.912Z,14.60
2023-01-01T12:52:59.358Z,13.25
2023-01-01T12:56:17.507Z,14.00
2023-01-01T12:59:28.651Z,13.00
2023-01-01T13:02:37.122Z,12.60
2023-01-01T13:05:44.596Z,14.75
2023-01-01T13:08:52.935Z,13.00
2023-01-01T13:12:02.644Z,13.00
2023-01-01T13:15:44.262Z,12.00
2023-01-01T13:18:51.446Z,13.50
2023-01-01T13:21:54.967Z,14.00
2023-01-01T13:25:06.869Z,13.25
2023-01-01T13:28:14.415Z,16.00
2023-01-01T13:31:19.480Z,15.00
2023-01-01T13:34:58.926Z,15.00
2023-01-01T13:38:02.217Z,13.20
2023-01-01T13:41:05.517Z,14.80
2023-01-01T13:44:19.457Z,15.60
2023-01-01T13:47:38.512Z,16.80
2023-01-01T13:50:53.096Z,15.80
2023-01-01T13:54:21.579Z,15.00
2023-01-01T13:57:49.590Z,18.00
2023-01-01T14:01:07.541Z,18.00
2023-01-01T14:04:28.697Z,14.40
2023-01-01T14:07:51.620Z,17.20
2023-01-01T14:10:56.054Z,17.00
2023-01-01T14:13:59.245Z,16.40
2023-01-01T14:17:07.442Z,17.00
2023-01-01T14:20:18.275Z,17.40
2023-01-01T14:23:29.293Z,13.00
2023-01-01T14:26:35.049Z,15.80
2023-01-01T14:29:38.408Z,15.00
2023-01-01T14:32:41.688Z,16.00
2023-01-01T14:35:54.936Z,14.00
2023-01-01T14:39:00.860Z,17.00
2023-01-01T14:42:09.002Z,15.50
2023-01-01T14:45:16.291Z,14.00
2023-01-01T14:48:21.667Z,16.00
2023-01-01T14:51:30.805Z,12.40
2023-01-01T14:54:38.110Z,15.67
2023-01-01T14:57:41.606Z,10.00
2023-01-01T15:00:44.910Z,16.00
2023-01-01T15:03:59.428Z,16.00
2023-01-01T15:07:04.058Z,16.00
2023-01-01T15:10:13.267Z,17.00
2023-01-01T15:13:21.274Z,15.00
2023-01-01T15:16:24.857Z,15.80
2023-01-01T15:19:28.729Z,17.00
2023-01-01T15:22:37.323Z,20.00
2023-01-01T15:25:43.778Z,15.00
2023-01-01T15:28:47.154Z,19.00
2023-01-01T15:31:56.978Z,17.00
2023-01-01T15:35:02.248Z,18.00
2023-01-01T15:38:13.753Z,18.40
2023-01-01T15:41:25.618Z,18.50
2023-01-01T15:44:30.944Z,19.00
2023-01-01T15:47:39.673Z,21.50
2023-01-01T15:51:01.948Z,19.60
2023-01-01T15:54:07.335Z,19.00
2023-01-01T15:57:20.585Z,20.00
2023-01-01T16:00:25.845Z,21.00
2023-01-01T16:03:31.698Z,21.50
2023-01-01T16:06:43.086Z,22.00
2023-01-01T16:09:51.989Z,18.60
2023-01-01T16:13:00.276Z,20.00
2023-01-01T16:16:05.004Z,21.20
2023-01-01T16:19:15.805Z,20.25
2023-01-01T16:22:20.714Z,20.00
2023-01-01T16:25:25.377Z,18.00
2023-01-01T16:28:28.668Z,21.00
2023-01-01T16:31:32.213Z,20.00
2023-01-01T16:34:35.565Z,20.00
2023-01-01T16:37:38.857Z,20.60
2023-01-01T16:40:43.731Z,21.00
2023-01-01T16:43:47.940Z,21.33
2023-01-01T16:46:51.230Z,21.00
2023-01-01T16:49:54.551Z,20.00
2023-01-01T16:52:57.797Z,22.00
2023-01-01T16:56:03.787Z,20.40
2023-01-01T16:59:07.563Z,23.00
2023-01-01T17:02:12.038Z,22.00
2023-01-01T17:05:16.762Z,22.00
2023-01-01T17:08:20.014Z,21.80
2023-01-01T17:11:25.143Z,22.00
2023-01-01T17:14:28.418Z,21.80
2023-01-01T17:17:32.286Z,22.80
2023-01-01T17:20:35.699Z,22.00
2023-01-01T17:23:41.916Z,22.00
2023-01-01T17:26:46.596Z,22.00
2023-01-01T17:29:50.330Z,22.00
2023-01-01T17:32:53.862Z,22.00
2023-01-01T17:35:57.151Z,20.20
2023-01-01T17:39:00.409Z,22.00
2023-01-01T17:42:05.209Z,22.80
2023-01-01T17:45:10.265Z,22.00
2023-01-01T17:48:13.890Z,22.00
2023-01-01T17:51:18.397Z,22.00
2023-01-01T17:54:22.006Z,22.00
2023-01-01T17:57:26.915Z,23.00
2023-01-01T18:00:30.309Z,21.40
2023-01-01T18:03:33.909Z,21.50
2023-01-01T18:06:42.412Z,23.00
2023-01-01T18:09:47.022Z,23.00
2023-01-01T18:12:51.685Z,24.00
2023-01-01T18:15:54.956Z,23.00
2023-01-01T18:19:01.421Z,22.00
2023-01-01T18:22:04.661Z,23.40
2023-01-01T18:25:08.738Z,24.50
2023-01-01T18:28:13.351Z,24.20
2023-01-01T18:31:18.053Z,25.00
2023-01-01T18:34:21.808Z,24.00
2023-01-01T18:37:25.178Z,26.50
2023-01-01T18:40:32.797Z,23.00
2023-01-01T18:43:37.500Z,25.00
2023-01-01T18:46:40.861Z,23.00
2023-01-01T18:49:49.156Z,25.20
2023-01-01T18:52:55.534Z,23.60
2023-01-01T18:56:04.555Z,27.00
2023-01-01T18:59:21.611Z,26.60
2023-01-01T19:02:31.251Z,25.75
2023-01-01T19:05:36.011Z,26.00
2023-01-01T19:08:44.093Z,25.00
2023-01-01T19:11:48.419Z,24.00
2023-01-01T19:14:58.838Z,25.40
2023-01-01T19:18:02.254Z,24.50
2023-01-01T19:21:20.619Z,25.60
2023-01-01T19:24:26.063Z,25.20
2023-01-01T19:27:40.663Z,24.00
2023-01-01T19:30:46.209Z,26.50
2023-01-01T19:33:50.336Z,26.60
2023-01-01T19:36:55.960Z,27.00
2023-01-01T19:39:59.339Z,27.00
2023-01-01T19:43:03.723Z,28.00
2023-01-01T19:46:09.119Z,29.00
2023-01-01T19:49:12.438Z,27.25
2023-01-01T19:52:15.877Z,29.25
2023-01-01T19:55:19.149Z,28.00
2023-01-01T19:58:23.232Z,28.00
2023-01-01T20:01:28.092Z,29.00
2023-01-01T20:04:31.530Z,29.40
2023-01-01T20:07:35.286Z,30.00
2023-01-01T20:10:38.609Z,30.00
2023-01-01T20:13:41.868Z,29.00
2023-01-01T20:16:47.309Z,28.50
2023-01-01T20:19:50.562Z,30.00
2023-01-01T20:22:53.815Z,27.75
2023-01-01T20:25:57.090Z,28.40
2023-01-01T20:29:17.565Z,29.00
2023-01-01T20:32:22.464Z,32.00
2023-01-01T20:35:39.910Z,31.75
2023-01-01T20:38:43.457Z,31.00
2023-01-01T20:41:46.909Z,32.00
2023-01-01T20:44:50.902Z,31.00
2023-01-01T20:47:55.856Z,31.00
2023-01-01T20:50:59.595Z,32.00
2023-01-01T20:54:03.499Z,31.80
2023-01-01T20:57:06.944Z,33.00
2023-01-01T21:00:11.531Z,33.00
2023-01-01T21:03:16.767Z,33.00
2023-01-01T21:06:24.411Z,34.00
2023-01-01T21:09:28.336Z,33.80
2023-01-01T21:12:31.854Z,33.00
2023-01-01T21:15:35.149Z,35.00
2023-01-01T21:18:41.696Z,34.00
2023-01-01T21:21:48.680Z,33.00
2023-01-01T21:24:54.686Z,34.00
2023-01-01T21:28:00.237Z,33.00
2023-01-01T21:31:10.004Z,29.75
2023-01-01T21:34:29.909Z,31.00
2023-01-01T21:37:51.052Z,29.50
2023-01-01T21:40:55.470Z,29.00
2023-01-01T21:43:59.968Z,29.75
2023-01-01T21:47:03.581Z,31.00
2023-01-01T21:50:25.802Z,30.00
2023-01-01T21:53:30.757Z,28.60
2023-01-01T21:56:38.154Z,28.00
2023-01-01T21:59:43.808Z,29.00
2023-01-01T22:02:48.954Z,31.00
2023-01-01T22:05:59.177Z,28.00
2023-01-01T22:09:03.775Z,28.00
2023-01-01T22:12:20.897Z,28.60
2023-01-01T22:15:37.035Z,29.00
2023-01-01T22:18:40.766Z,28.00
2023-01-01T22:21:46.377Z,28.25
2023-01-01T22:24:54.667Z,28.00
2023-01-01T22:27:59.120Z,28.40
2023-01-01T22:31:03.727Z,28.00
2023-01-01T22:34:20.630Z,29.00
2023-01-01T22:37:32.625Z,28.00
2023-01-01T22:40:39.084Z,27.00
2023-01-01T22:43:44.935Z,28.00
2023-01-01T22:46:48.222Z,27.00
2023-01-01T22:49:53.181Z,27.00
2023-01-01T22:52:58.033Z,28.00
2023-01-01T22:56:01.477Z,27.00
2023-01-01T22:59:04.949Z,29.00
2023-01-01T23:02:08.282Z,28.00
2023-01-01T23:05:12.825Z,27.00
2023-01-01T23:08:17.717Z,28.00
2023-01-01T23:11:21.696Z,30.00
2023-01-01T23:14:43.562Z,28.00
2023-01-01T23:17:47.175Z,29.00
2023-01-01T23:20:50.514Z,28.00
2023-01-01T23:23:57.888Z,28.00
2023-01-01T23:27:02.241Z,28.00
2023-01-01T23:30:06.746Z,28.00
2023-01-01T23:33:10.361Z,28.00
2023-01-01T23:36:14.802Z,28.00
2023-01-01T23:39:19.432Z,27.20
2023-01-01T23:42:23.425Z,28.00
2023-01-01T23:45:27.156Z,28.00
2023-01-01T23:48:31.692Z,28.00
2023-01-01T23:51:36.047Z,26.50
2023-01-01T23:54:40.747Z,26.00
2023-01-01T23:57:44.076Z,27.00
